createdAt,value
2023-04-07T00:01:24.488Z,19.83
2023-04-07T00:03:48.226Z,19.33
2023-04-07T00:06:12.053Z,19.03
2023-04-07T00:08:37.119Z,18.93
2023-04-07T00:11:01.037Z,19.83
2023-04-07T00:13:24.656Z,18.20
2023-04-07T00:15:48.411Z,18.27
2023-04-07T00:18:12.073Z,18.10
2023-04-07T00:20:35.810Z,18.07
2023-04-07T00:22:59.506Z,19.03
2023-04-07T00:25:24.614Z,18.53
2023-04-07T00:27:48.265Z,18.37
2023-04-07T00:30:12.664Z,18.77
2023-04-07T00:32:36.656Z,19.77
2023-04-07T00:35:02.241Z,19.13
2023-04-07T00:37:26.625Z,19.60
2023-04-07T00:39:51.527Z,18.83
2023-04-07T00:42:17.182Z,20.13
2023-04-07T00:44:40.940Z,19.33
2023-04-07T00:47:05.316Z,18.37
2023-04-07T00:49:29.542Z,19.40
2023-04-07T00:51:53.149Z,18.50
2023-04-07T00:54:17.370Z,18.17
2023-04-07T00:56:43.197Z,19.00
2023-04-07T00:59:08.957Z,18.67
2023-04-07T01:01:39.118Z,20.47
2023-04-07T01:04:09.986Z,19.43
2023-04-07T01:06:42.226Z,18.73
2023-04-07T01:09:09.548Z,19.13
2023-04-07T01:11:41.940Z,18.53
2023-04-07T01:14:11.363Z,18.03
2023-04-07T01:16:44.901Z,18.60
2023-04-07T01:19:18.160Z,17.50
2023-04-07T01:21:54.414Z,17.13
2023-04-07T01:24:40.963Z,17.83
2023-04-07T01:27:22.838Z,18.17
2023-04-07T01:29:50.604Z,18.77
2023-04-07T01:32:15.002Z,18.30
2023-04-07T01:34:39.961Z,19.97
2023-04-07T01:37:04.498Z,18.43
2023-04-07T01:39:29.443Z,20.80
2023-04-07T01:41:54.617Z,19.30
2023-04-07T01:44:19.153Z,19.67
2023-04-07T01:46:44.243Z,19.97
2023-04-07T01:49:08.884Z,19.37
2023-04-07T01:51:33.447Z,19.10
2023-04-07T01:53:57.707Z,18.77
2023-04-07T01:56:21.524Z,20.80
2023-04-07T01:58:48.595Z,19.17
2023-04-07T02:01:15.872Z,18.70
2023-04-07T02:04:01.896Z,18.33
2023-04-07T02:06:34.345Z,18.30
2023-04-07T02:09:04.573Z,17.90
2023-04-07T02:11:28.897Z,18.00
2023-04-07T02:13:58.182Z,17.60
2023-04-07T02:16:24.674Z,17.00
2023-04-07T02:18:50.872Z,17.20
2023-04-07T02:21:16.585Z,15.73
2023-04-07T02:23:42.357Z,16.70
2023-04-07T02:26:06.785Z,17.97
2023-04-07T02:28:30.609Z,17.60
2023-04-07T02:30:54.301Z,17.37
2023-04-07T02:33:18.011Z,16.67
2023-04-07T02:35:43.142Z,16.57
2023-04-07T02:38:06.778Z,17.10
2023-04-07T02:40:32.696Z,17.00
2023-04-07T02:42:56.329Z,16.60
2023-04-07T02:45:20.037Z,16.10
2023-04-07T02:47:43.825Z,15.97
2023-04-07T02:50:09.099Z,16.77
2023-04-07T02:52:34.406Z,16.10
2023-04-07T02:55:01.154Z,15.97
2023-04-07T02:57:25.452Z,16.40
2023-04-07T02:59:52.251Z,16.33
2023-04-07T03:02:16.115Z,16.97
2023-04-07T03:04:40.071Z,17.37
2023-04-07T03:07:03.861Z,16.70
2023-04-07T03:09:30.793Z,16.67
2023-04-07T03:11:54.461Z,17.10
2023-04-07T03:14:18.216Z,16.60
2023-04-07T03:16:44.667Z,16.17
2023-04-07T03:19:10.947Z,17.20
2023-04-07T03:21:40.224Z,15.83
2023-04-07T03:24:04.050Z,16.17
2023-04-07T03:26:29.149Z,16.00
2023-04-07T03:28:53.709Z,15.67
2023-04-07T03:31:17.914Z,15.63
2023-04-07T03:33:42.353Z,15.40
2023-04-07T03:36:06.935Z,14.50
2023-04-07T03:38:30.958Z,15.10
2023-04-07T03:40:58.165Z,15.07
2023-04-07T03:43:23.245Z,14.50
2023-04-07T03:45:47.229Z,14.47
2023-04-07T03:48:12.399Z,14.63
2023-04-07T03:50:45.346Z,14.03
2023-04-07T03:53:14.005Z,13.83
2023-04-07T03:55:38.557Z,14.37
2023-04-07T03:58:09.912Z,14.00
2023-04-07T04:00:36.192Z,14.13
2023-04-07T04:03:04.655Z,14.97
2023-04-07T04:05:30.072Z,14.17
2023-04-07T04:07:54.062Z,13.53
2023-04-07T04:10:19.591Z,14.10
2023-04-07T04:12:47.309Z,14.17
2023-04-07T04:15:12.178Z,13.43
2023-04-07T04:17:38.067Z,12.80
2023-04-07T04:20:02.533Z,14.03
2023-04-07T04:22:37.901Z,13.07
2023-04-07T04:25:01.843Z,13.70
2023-04-07T04:27:25.695Z,13.40
2023-04-07T04:29:56.412Z,13.07
2023-04-07T04:32:31.101Z,13.10
2023-04-07T04:34:56.482Z,12.77
2023-04-07T04:37:21.556Z,13.13
2023-04-07T04:39:45.400Z,13.70
2023-04-07T04:42:10.943Z,13.60
2023-04-07T04:44:34.632Z,13.60
2023-04-07T04:47:00.263Z,13.77
2023-04-07T04:49:24.330Z,13.97
2023-04-07T04:51:50.337Z,14.60
2023-04-07T04:54:14.371Z,14.53
2023-04-07T04:56:38.218Z,15.03
2023-04-07T04:59:02.738Z,16.07
2023-04-07T05:01:48.977Z,16.40
2023-04-07T05:04:14.315Z,16.57
2023-04-07T05:06:44.043Z,16.90
2023-04-07T05:09:11.444Z,16.93
2023-04-07T05:11:42.766Z,18.00
2023-04-07T05:14:06.607Z,16.70
2023-04-07T05:16:30.415Z,17.13
2023-04-07T05:18:54.603Z,17.23
2023-04-07T05:21:20.215Z,16.83
2023-04-07T05:23:44.339Z,16.90
2023-04-07T05:26:09.825Z,17.27
2023-04-07T05:28:33.733Z,16.93
2023-04-07T05:31:02.465Z,16.87
2023-04-07T05:33:29.079Z,18.30
2023-04-07T05:35:53.276Z,17.30
2023-04-07T05:38:17.238Z,17.10
2023-04-07T05:40:42.496Z,16.87
2023-04-07T05:43:10.776Z,15.77
2023-04-07T05:45:34.650Z,16.97
2023-04-07T05:47:58.666Z,16.60
2023-04-07T05:50:29.204Z,16.27
2023-04-07T05:52:55.711Z,16.20
2023-04-07T05:55:22.891Z,16.20
2023-04-07T05:57:47.663Z,15.17
2023-04-07T06:00:16.396Z,15.10
2023-04-07T06:02:44.644Z,16.17
2023-04-07T06:05:13.985Z,13.70
2023-04-07T06:07:37.830Z,14.27
2023-04-07T06:10:01.669Z,12.90
2023-04-07T06:12:25.657Z,13.27
2023-04-07T06:14:54.409Z,13.70
2023-04-07T06:17:20.744Z,12.43
2023-04-07T06:19:44.822Z,12.87
2023-04-07T06:22:08.575Z,13.10
2023-04-07T06:24:33.969Z,12.93
2023-04-07T06:26:59.046Z,12.67
2023-04-07T06:29:22.778Z,13.50
2023-04-07T06:31:46.629Z,12.27
2023-04-07T06:34:11.840Z,11.87
2023-04-07T06:36:35.806Z,12.50
2023-04-07T06:38:59.743Z,12.40
2023-04-07T06:41:23.736Z,11.67
2023-04-07T06:43:51.364Z,11.93
2023-04-07T06:46:15.145Z,12.17
2023-04-07T06:48:38.760Z,11.40
2023-04-07T06:51:03.915Z,11.37
2023-04-07T06:53:27.573Z,11.20
2023-04-07T06:55:51.233Z,10.73
2023-04-07T06:58:14.867Z,11.47
2023-04-07T07:00:38.575Z,10.17
2023-04-07T07:03:02.812Z,10.30
2023-04-07T07:05:27.313Z,11.17
2023-04-07T07:07:52.614Z,10.30
2023-04-07T07:10:16.377Z,11.40
2023-04-07T07:12:40.060Z,10.67
2023-04-07T07:15:04.286Z,10.47
2023-04-07T07:17:27.938Z,11.00
2023-04-07T07:19:51.608Z,10.37
2023-04-07T07:22:15.216Z,10.27
2023-04-07T07:24:40.408Z,9.77
2023-04-07T07:27:04.067Z,10.37
2023-04-07T07:29:27.731Z,9.87
2023-04-07T07:31:51.378Z,9.97
2023-04-07T07:34:15.068Z,10.20
2023-04-07T07:36:38.715Z,9.67
2023-04-07T07:39:02.442Z,10.00
2023-04-07T07:41:27.850Z,8.97
2023-04-07T07:43:51.974Z,9.00
2023-04-07T07:46:15.675Z,8.50
2023-04-07T07:48:39.389Z,8.90
2023-04-07T07:51:03.172Z,8.70
2023-04-07T07:53:26.972Z,7.43
2023-04-07T07:55:50.762Z,8.33
2023-04-07T07:58:15.952Z,8.25
2023-04-07T08:00:39.607Z,7.60
2023-04-07T08:03:03.440Z,8.00
2023-04-07T08:05:27.358Z,7.70
2023-04-07T08:07:53.326Z,7.40
2023-04-07T08:10:17.792Z,7.18
2023-04-07T08:12:41.598Z,6.60
2023-04-07T08:15:09.828Z,6.18
2023-04-07T08:17:33.658Z,6.20
2023-04-07T08:19:57.254Z,6.53
2023-04-07T08:22:21.258Z,6.72
2023-04-07T08:24:44.863Z,6.85
2023-04-07T08:27:08.592Z,5.47
2023-04-07T08:29:32.411Z,6.53
2023-04-07T08:31:57.720Z,6.82
2023-04-07T08:34:21.497Z,6.43
2023-04-07T08:36:45.205Z,6.72
2023-04-07T08:39:08.924Z,6.00
2023-04-07T08:41:39.459Z,6.78
2023-04-07T08:44:03.764Z,7.72
2023-04-07T08:46:27.544Z,6.35
2023-04-07T08:48:54.269Z,6.15
2023-04-07T08:51:23.811Z,5.93
2023-04-07T08:53:51.527Z,6.18
2023-04-07T08:56:16.025Z,6.68
2023-04-07T08:58:39.716Z,6.18
2023-04-07T09:01:06.135Z,6.35
2023-04-07T09:03:32.638Z,5.32
2023-04-07T09:05:58.624Z,5.32
2023-04-07T09:08:22.229Z,5.93
2023-04-07T09:10:45.975Z,5.88
2023-04-07T09:13:09.829Z,5.78
2023-04-07T09:15:34.015Z,5.43
2023-04-07T09:17:58.717Z,5.82
2023-04-07T09:20:22.711Z,5.65
2023-04-07T09:22:48.101Z,5.65
2023-04-07T09:25:15.019Z,5.18
2023-04-07T09:27:38.726Z,5.43
2023-04-07T09:30:14.707Z,4.78
2023-04-07T09:32:39.798Z,4.95
2023-04-07T09:35:03.524Z,5.45
2023-04-07T09:37:27.220Z,4.43
2023-04-07T09:39:54.744Z,5.13
2023-04-07T09:42:18.613Z,4.72
2023-04-07T09:44:42.493Z,5.45
2023-04-07T09:47:06.402Z,4.80
2023-04-07T09:49:30.102Z,5.10
2023-04-07T09:51:59.858Z,5.97
2023-04-07T09:54:36.046Z,5.68
2023-04-07T09:57:03.204Z,5.22
2023-04-07T09:59:28.136Z,6.18
2023-04-07T10:01:53.846Z,4.75
2023-04-07T10:04:19.443Z,5.00
2023-04-07T10:06:44.219Z,4.72
2023-04-07T10:09:10.334Z,4.60
2023-04-07T10:11:34.482Z,4.00
2023-04-07T10:13:59.924Z,4.10
2023-04-07T10:16:25.098Z,4.40
2023-04-07T10:18:51.348Z,4.18
2023-04-07T10:21:18.254Z,4.00
2023-04-07T10:23:58.130Z,4.07
2023-04-07T10:26:25.083Z,4.70
2023-04-07T10:28:52.173Z,5.47
2023-04-07T10:31:18.506Z,4.93
2023-04-07T10:33:52.038Z,5.28
2023-04-07T10:36:16.145Z,4.55
2023-04-07T10:38:39.824Z,4.60
2023-04-07T10:41:36.993Z,4.78
2023-04-07T10:44:00.776Z,5.18
2023-04-07T10:46:26.014Z,5.28
2023-04-07T10:49:10.617Z,5.10
2023-04-07T10:51:34.328Z,5.60
2023-04-07T10:54:23.290Z,5.70
2023-04-07T10:57:15.939Z,5.85
2023-04-07T10:59:43.466Z,6.43
2023-04-07T11:02:35.210Z,6.63
2023-04-07T11:04:59.115Z,6.13
2023-04-07T11:08:02.822Z,5.80
2023-04-07T11:10:27.354Z,7.85
2023-04-07T11:13:08.413Z,6.63
2023-04-07T11:15:32.170Z,6.30
2023-04-07T11:18:19.486Z,6.63
2023-04-07T11:20:46.405Z,6.60
2023-04-07T11:23:10.244Z,6.63
2023-04-07T11:25:35.596Z,6.78
2023-04-07T11:27:59.429Z,7.55
2023-04-07T11:30:23.192Z,8.63
2023-04-07T11:32:51.492Z,8.05
2023-04-07T11:35:16.821Z,8.23
2023-04-07T11:37:40.697Z,7.55
2023-04-07T11:40:04.481Z,8.13
2023-04-07T11:42:35.060Z,7.32
2023-04-07T11:44:58.950Z,7.57
2023-04-07T11:47:22.745Z,7.22
2023-04-07T11:49:48.302Z,6.97
2023-04-07T11:52:13.707Z,7.43
2023-04-07T11:54:46.937Z,7.00
2023-04-07T11:57:12.907Z,7.30
2023-04-07T11:59:37.209Z,5.68
2023-04-07T12:02:01.101Z,6.50
2023-04-07T12:04:25.131Z,6.45
2023-04-07T12:06:50.630Z,6.25
2023-04-07T12:09:30.763Z,6.35
2023-04-07T12:11:54.925Z,5.22
2023-04-07T12:14:18.998Z,5.35
2023-04-07T12:16:42.764Z,5.82
2023-04-07T12:19:06.492Z,5.03
2023-04-07T12:21:30.176Z,8.55
2023-04-07T12:23:53.792Z,5.40
2023-04-07T12:26:21.138Z,4.38
2023-04-07T12:28:46.128Z,3.92
2023-04-07T12:31:10.277Z,3.50
2023-04-07T12:33:34.297Z,3.45
2023-04-07T12:35:59.014Z,3.50
2023-04-07T12:38:22.950Z,3.47
2023-04-07T12:40:46.741Z,3.50
2023-04-07T12:43:11.997Z,3.33
2023-04-07T12:45:36.007Z,3.53
2023-04-07T12:47:59.987Z,3.83
2023-04-07T12:50:25.202Z,3.42
2023-04-07T12:52:48.893Z,3.20
2023-04-07T12:55:14.317Z,3.50
2023-04-07T12:57:38.332Z,3.33
2023-04-07T13:00:03.475Z,3.13
2023-04-07T13:02:27.259Z,3.78
2023-04-07T13:04:51.117Z,3.60
2023-04-07T13:07:15.115Z,3.75
2023-04-07T13:09:39.125Z,3.55
2023-04-07T13:12:03.018Z,3.70
2023-04-07T13:14:26.798Z,3.55
2023-04-07T13:16:52.047Z,3.40
2023-04-07T13:19:16.287Z,3.88
2023-04-07T13:24:07.123Z,3.88
2023-04-07T13:26:31.309Z,3.83
2023-04-07T13:28:55.204Z,4.32
2023-04-07T13:31:19.032Z,4.30
2023-04-07T13:33:44.502Z,4.00
2023-04-07T13:36:08.439Z,4.30
2023-04-07T13:38:32.923Z,4.50
2023-04-07T13:40:56.707Z,4.63
2023-04-07T13:43:20.483Z,4.50
2023-04-07T13:45:44.293Z,4.40
2023-04-07T13:48:08.260Z,4.30
2023-04-07T13:50:33.364Z,4.22
2023-04-07T13:52:57.226Z,4.80
2023-04-07T13:55:21.654Z,4.60
2023-04-07T13:57:45.397Z,3.95
2023-04-07T14:00:10.585Z,4.20
2023-04-07T14:02:34.345Z,4.40
2023-04-07T14:04:58.279Z,3.90
2023-04-07T14:07:24.029Z,4.00
2023-04-07T14:09:48.324Z,4.05
2023-04-07T14:12:12.030Z,3.92
2023-04-07T14:14:37.648Z,4.00
2023-04-07T14:17:02.073Z,3.95
2023-04-07T14:19:26.057Z,4.18
2023-04-07T14:21:49.755Z,4.20
2023-04-07T14:24:14.738Z,3.92
2023-04-07T14:26:38.413Z,3.83
2023-04-07T14:29:02.306Z,4.03
2023-04-07T14:31:26.164Z,4.63
2023-04-07T14:33:51.166Z,5.07
2023-04-07T14:36:17.458Z,4.40
2023-04-07T14:38:41.186Z,4.43
2023-04-07T14:41:09.982Z,4.05
2023-04-07T14:43:34.035Z,4.18
2023-04-07T14:45:59.795Z,3.65
2023-04-07T14:48:23.616Z,3.70
2023-04-07T14:50:50.130Z,3.63
2023-04-07T14:53:17.555Z,3.22
2023-04-07T14:55:43.063Z,3.40
2023-04-07T14:58:08.322Z,3.28
2023-04-07T15:00:31.969Z,3.67
2023-04-07T15:02:56.388Z,4.18
2023-04-07T15:05:20.907Z,3.75
2023-04-07T15:07:45.933Z,3.47
2023-04-07T15:10:10.759Z,3.47
2023-04-07T15:12:34.396Z,3.70
2023-04-07T15:14:59.504Z,3.97
2023-04-07T15:17:30.280Z,3.88
2023-04-07T15:20:00.351Z,3.45
2023-04-07T15:22:23.952Z,4.80
2023-04-07T15:24:47.875Z,4.80
2023-04-07T15:27:12.040Z,4.25
2023-04-07T15:29:36.396Z,4.18
2023-04-07T15:32:01.479Z,4.40
2023-04-07T15:34:25.220Z,4.80
2023-04-07T15:36:49.432Z,3.92
2023-04-07T15:39:13.250Z,4.93
2023-04-07T15:41:37.017Z,4.70
2023-04-07T15:44:02.037Z,4.63
2023-04-07T15:46:25.800Z,4.75
2023-04-07T15:48:51.903Z,4.93
2023-04-07T15:51:15.741Z,4.90
2023-04-07T15:53:39.453Z,4.90
2023-04-07T15:56:03.229Z,4.80
2023-04-07T15:58:26.877Z,4.85
2023-04-07T16:00:51.028Z,4.43
2023-04-07T16:03:15.023Z,4.20
2023-04-07T16:05:44.942Z,4.30
2023-04-07T16:08:09.090Z,4.27
2023-04-07T16:10:33.112Z,5.00
2023-04-07T16:12:56.928Z,5.10
2023-04-07T16:15:36.507Z,5.55
2023-04-07T16:18:07.236Z,4.90
2023-04-07T16:20:30.851Z,5.18
2023-04-07T16:22:56.014Z,5.40
2023-04-07T16:25:20.161Z,4.70
2023-04-07T16:27:45.003Z,5.28
2023-04-07T16:30:11.032Z,5.05
2023-04-07T16:32:35.256Z,5.03
2023-04-07T16:34:58.972Z,5.03
2023-04-07T16:37:22.818Z,5.40
2023-04-07T16:39:47.834Z,5.50
2023-04-07T16:42:11.747Z,5.60
2023-04-07T16:44:35.469Z,5.67
2023-04-07T16:46:59.279Z,5.75
2023-04-07T16:49:23.370Z,5.90
2023-04-07T16:51:47.197Z,6.00
2023-04-07T16:54:10.931Z,6.00
2023-04-07T16:56:36.390Z,5.85
2023-04-07T16:59:01.448Z,6.30
2023-04-07T17:01:29.760Z,7.32
2023-04-07T17:03:53.854Z,6.45
2023-04-07T17:06:17.793Z,6.63
2023-04-07T17:08:41.469Z,6.88
2023-04-07T17:11:08.043Z,7.00
2023-04-07T17:13:33.081Z,6.70
2023-04-07T17:15:56.850Z,5.82
2023-04-07T17:18:20.494Z,5.68
2023-04-07T17:20:44.233Z,5.50
2023-04-07T17:23:09.325Z,5.87
2023-04-07T17:25:33.023Z,6.00
2023-04-07T17:27:56.674Z,5.18
2023-04-07T17:30:22.107Z,4.95
2023-04-07T17:32:45.802Z,5.30
2023-04-07T17:35:10.404Z,5.60
2023-04-07T17:37:34.330Z,5.90
2023-04-07T17:39:58.079Z,6.17
2023-04-07T17:42:21.672Z,6.63
2023-04-07T17:44:45.645Z,6.00
2023-04-07T17:47:10.824Z,5.57
2023-04-07T17:49:34.554Z,6.03
2023-04-07T17:51:58.252Z,5.80
2023-04-07T17:54:22.034Z,6.03
2023-04-07T17:56:46.139Z,6.10
2023-04-07T17:59:09.773Z,6.20
2023-04-07T18:01:33.575Z,5.73
2023-04-07T18:04:00.280Z,6.03
2023-04-07T18:06:24.037Z,6.47
2023-04-07T18:08:48.489Z,6.75
2023-04-07T18:11:12.111Z,6.40
2023-04-07T18:13:35.860Z,6.47
2023-04-07T18:15:59.769Z,6.17
2023-04-07T18:18:23.534Z,5.90
2023-04-07T18:20:48.652Z,7.05
2023-04-07T18:23:12.560Z,8.00
2023-04-07T18:25:36.581Z,7.07
2023-04-07T18:28:01.998Z,6.22
2023-04-07T18:30:25.692Z,6.20
2023-04-07T18:32:49.612Z,5.73
2023-04-07T18:35:14.578Z,6.40
2023-04-07T18:37:40.642Z,6.53
2023-04-07T18:40:05.748Z,6.93
2023-04-07T18:42:29.491Z,7.50
2023-04-07T18:44:53.173Z,7.05
2023-04-07T18:47:17.378Z,7.90
2023-04-07T18:49:41.122Z,7.15
2023-04-07T18:52:05.206Z,7.22
2023-04-07T18:54:30.516Z,6.97
2023-04-07T18:56:54.318Z,7.67
2023-04-07T18:59:18.050Z,8.00
2023-04-07T19:01:42.656Z,7.27
2023-04-07T19:04:06.771Z,7.13
2023-04-07T19:06:31.996Z,8.10
2023-04-07T19:08:55.821Z,8.50
2023-04-07T19:11:21.440Z,8.47
2023-04-07T19:13:45.138Z,7.80
2023-04-07T19:16:09.006Z,7.77
2023-04-07T19:18:32.782Z,7.97
2023-04-07T19:20:57.091Z,7.70
2023-04-07T19:23:20.797Z,7.93
2023-04-07T19:25:45.984Z,7.63
2023-04-07T19:28:11.303Z,8.13
2023-04-07T19:30:35.374Z,8.10
2023-04-07T19:32:59.092Z,7.67
2023-04-07T19:35:23.129Z,7.80
2023-04-07T19:37:48.112Z,8.13
2023-04-07T19:40:12.836Z,7.97
2023-04-07T19:42:38.088Z,8.80
2023-04-07T19:45:07.326Z,8.77
2023-04-07T19:47:31.317Z,9.07
2023-04-07T19:49:55.411Z,8.67
2023-04-07T19:52:19.170Z,9.40
2023-04-07T19:54:42.948Z,9.53
2023-04-07T19:57:06.747Z,7.80
2023-04-07T19:59:30.481Z,9.40
2023-04-07T20:01:56.014Z,8.90
2023-04-07T20:04:19.838Z,9.50
2023-04-07T20:06:43.525Z,9.13
2023-04-07T20:09:07.513Z,8.93
2023-04-07T20:11:31.193Z,9.60
2023-04-07T20:13:56.214Z,9.75
2023-04-07T20:16:20.056Z,9.50
2023-04-07T20:18:45.372Z,10.27
2023-04-07T20:21:10.008Z,9.63
2023-04-07T20:23:34.502Z,9.77
2023-04-07T20:25:58.220Z,9.60
2023-04-07T20:28:22.215Z,9.27
2023-04-07T20:30:45.965Z,9.87
2023-04-07T20:33:09.830Z,9.60
2023-04-07T20:35:35.199Z,10.20
2023-04-07T20:38:00.237Z,10.40
2023-04-07T20:40:23.973Z,9.30
2023-04-07T20:42:47.784Z,10.37
2023-04-07T20:45:12.552Z,9.53
2023-04-07T20:47:37.016Z,10.83
2023-04-07T20:50:00.739Z,10.03
2023-04-07T20:52:27.284Z,9.83
2023-04-07T20:54:51.124Z,9.67
2023-04-07T20:57:14.952Z,9.60
2023-04-07T20:59:38.670Z,9.70
2023-04-07T21:02:02.659Z,10.10
2023-04-07T21:04:26.731Z,9.27
2023-04-07T21:06:50.655Z,8.60
2023-04-07T21:09:15.766Z,9.63
2023-04-07T21:11:39.693Z,9.07
2023-04-07T21:14:03.440Z,8.53
2023-04-07T21:16:27.204Z,9.13
2023-04-07T21:18:51.055Z,9.40
2023-04-07T21:21:14.998Z,9.53
2023-04-07T21:23:38.734Z,8.67
2023-04-07T21:26:04.779Z,9.17
2023-04-07T21:28:28.487Z,8.17
2023-04-07T21:30:53.465Z,9.10
2023-04-07T21:33:17.227Z,8.80
2023-04-07T21:35:41.345Z,8.60
2023-04-07T21:38:05.121Z,9.13
2023-04-07T21:40:29.103Z,8.80
2023-04-07T21:42:54.202Z,8.43
2023-04-07T21:45:18.229Z,9.27
2023-04-07T21:47:42.108Z,8.47
2023-04-07T21:50:07.424Z,8.53
2023-04-07T21:52:31.120Z,9.13
2023-04-07T21:54:54.906Z,8.83
2023-04-07T21:57:18.593Z,8.63
2023-04-07T21:59:43.879Z,9.50
2023-04-07T22:02:07.693Z,9.40
2023-04-07T22:04:32.163Z,9.57
2023-04-07T22:06:56.497Z,9.40
2023-04-07T22:09:20.282Z,8.73
2023-04-07T22:11:44.045Z,9.67
2023-04-07T22:14:07.862Z,9.30
2023-04-07T22:16:33.058Z,9.80
2023-04-07T22:18:56.886Z,9.43
2023-04-07T22:21:21.131Z,9.37
2023-04-07T22:23:45.291Z,10.43
2023-04-07T22:26:09.014Z,9.80
2023-04-07T22:28:33.440Z,9.70
2023-04-07T22:30:58.154Z,10.23
2023-04-07T22:33:23.345Z,10.53
2023-04-07T22:35:47.126Z,10.30
2023-04-07T22:38:10.953Z,9.80
2023-04-07T22:40:34.809Z,11.43
2023-04-07T22:42:58.586Z,11.30
2023-04-07T22:45:22.301Z,11.63
2023-04-07T22:47:46.129Z,11.07
2023-04-07T22:50:12.856Z,11.17
2023-04-07T22:52:36.725Z,11.20
2023-04-07T22:55:00.503Z,11.80
2023-04-07T22:57:24.243Z,11.67
2023-04-07T22:59:47.963Z,12.30
2023-04-07T23:02:12.090Z,12.10
2023-04-07T23:04:35.834Z,11.87
2023-04-07T23:07:01.338Z,12.10
2023-04-07T23:09:25.090Z,11.73
2023-04-07T23:11:48.911Z,12.23
2023-04-07T23:14:12.594Z,13.30
2023-04-07T23:16:36.604Z,11.93
2023-04-07T23:19:01.135Z,13.57
2023-04-07T23:21:24.860Z,12.80
2023-04-07T23:23:50.592Z,13.57
2023-04-07T23:26:14.384Z,13.80
2023-04-07T23:28:38.276Z,14.97
2023-04-07T23:31:02.881Z,14.27
2023-04-07T23:33:26.543Z,14.93
2023-04-07T23:35:50.335Z,16.07
2023-04-07T23:38:14.110Z,14.70
2023-04-07T23:40:39.387Z,15.20
2023-04-07T23:43:03.085Z,15.90
2023-04-07T23:45:26.884Z,14.80
2023-04-07T23:47:50.692Z,15.30
2023-04-07T23:50:14.762Z,17.30
2023-04-07T23:52:38.514Z,17.63
2023-04-07T23:55:02.322Z,16.47
2023-04-07T23:57:27.512Z,18.17
2023-04-07T23:59:51.307Z,17.77
